sensor_id;sensor_type;location;lat;lon;timestamp;pressure;altitude;pressure_sealevel;temperature;humidity
36748;BME280;22716;51.556;5.080;2022-11-15T00:00:17;100621.69;;;8.14;100.00
36748;BME280;22716;51.556;5.080;2022-11-15T00:02:46;100618.22;;;8.15;100.00
36748;BME280;22716;51.556;5.080;2022-11-15T00:05:15;100617.34;;;8.18;100.00
36748;BME280;22716;51.556;5.080;2022-11-15T00:07:44;100617.31;;;8.19;100.00
36748;BME280;22716;51.556;5.080;2022-11-15T00:10:15;100622.53;;;8.22;100.00
36748;BME280;22716;51.556;5.080;2022-11-15T00:12:44;100614.69;;;8.24;100.00
36748;BME280;22716;51.556;5.080;2022-11-15T00:15:16;100619.91;;;8.27;100.00
36748;BME280;22716;51.556;5.080;2022-11-15T00:17:48;100614.72;;;8.30;100.00
36748;BME280;22716;51.556;5.080;2022-11-15T00:20:17;100609.50;;;8.30;100.00
36748;BME280;22716;51.556;5.080;2022-11-15T00:22:48;100613.81;;;8.32;100.00
36748;BME280;22716;51.556;5.080;2022-11-15T00:25:17;100605.94;;;8.37;100.00
36748;BME280;22716;51.556;5.080;2022-11-15T00:27:47;100599.00;;;8.39;100.00
36748;BME280;22716;51.556;5.080;2022-11-15T00:30:20;100598.97;;;8.40;100.00
36748;BME280;22716;51.556;5.080;2022-11-15T00:32:50;100597.22;;;8.44;100.00
36748;BME280;22716;51.556;5.080;2022-11-15T00:35:19;100597.19;;;8.50;100.00
36748;BME280;22716;51.556;5.080;2022-11-15T00:37:48;100590.22;;;8.49;100.00
36748;BME280;22716;51.556;5.080;2022-11-15T00:40:18;100596.28;;;8.53;100.00
36748;BME280;22716;51.556;5.080;2022-11-15T00:42:47;100591.94;;;8.52;100.00
36748;BME280;22716;51.556;5.080;2022-11-15T00:45:16;100593.63;;;8.60;100.00
36748;BME280;22716;51.556;5.080;2022-11-15T00:47:48;100589.28;;;8.62;100.00
36748;BME280;22716;51.556;5.080;2022-11-15T00:50:17;100579.72;;;8.63;100.00
36748;BME280;22716;51.556;5.080;2022-11-15T00:52:46;100587.53;;;8.66;100.00
36748;BME280;22716;51.556;5.080;2022-11-15T00:55:17;100584.91;;;8.66;100.00
36748;BME280;22716;51.556;5.080;2022-11-15T00:57:47;100574.44;;;8.69;100.00
36748;BME280;22716;51.556;5.080;2022-11-15T01:00:17;100569.16;;;8.73;100.00
36748;BME280;22716;51.556;5.080;2022-11-15T01:02:48;100576.97;;;8.78;100.00
36748;BME280;22716;51.556;5.080;2022-11-15T01:05:18;100572.63;;;8.75;100.00
36748;BME280;22716;51.556;5.080;2022-11-15T01:07:47;100582.13;;;8.84;100.00
36748;BME280;22716;51.556;5.080;2022-11-15T01:10:22;100578.66;;;8.85;100.00
36748;BME280;22716;51.556;5.080;2022-11-15T01:12:51;100579.50;;;8.91;100.00
36748;BME280;22716;51.556;5.080;2022-11-15T01:15:20;100588.19;;;8.95;100.00
36748;BME280;22716;51.556;5.080;2022-11-15T01:17:52;100575.94;;;8.98;100.00
36748;BME280;22716;51.556;5.080;2022-11-15T01:20:20;100569.84;;;8.96;100.00
36748;BME280;22716;51.556;5.080;2022-11-15T01:22:50;100583.69;;;9.09;100.00
36748;BME280;22716;51.556;5.080;2022-11-15T01:25:21;100581.03;;;9.14;100.00
36748;BME280;22716;51.556;5.080;2022-11-15T01:27:50;100576.66;;;9.17;100.00
36748;BME280;22716;51.556;5.080;2022-11-15T01:30:19;100575.75;;;9.20;100.00
36748;BME280;22716;51.556;5.080;2022-11-15T01:32:51;100564.41;;;9.24;100.00
36748;BME280;22716;51.556;5.080;2022-11-15T01:35:21;100570.44;;;9.30;100.00
36748;BME280;22716;51.556;5.080;2022-11-15T01:37:51;100570.31;;;9.39;100.00
36748;BME280;22716;51.556;5.080;2022-11-15T01:40:31;100564.22;;;9.42;100.00
36748;BME280;22716;51.556;5.080;2022-11-15T01:43:18;100567.59;;;9.51;100.00
36748;BME280;22716;51.556;5.080;2022-11-15T01:45:53;100558.78;;;9.60;100.00
36748;BME280;22716;51.556;5.080;2022-11-15T01:48:31;100550.00;;;9.67;100.00
36748;BME280;22716;51.556;5.080;2022-11-15T01:51:04;100544.69;;;9.73;100.00
36748;BME280;22716;51.556;5.080;2022-11-15T01:53:38;100547.22;;;9.79;100.00
36748;BME280;22716;51.556;5.080;2022-11-15T01:56:12;100544.53;;;9.84;100.00
36748;BME280;22716;51.556;5.080;2022-11-15T01:58:43;100550.66;;;9.84;100.00
36748;BME280;22716;51.556;5.080;2022-11-15T02:01:13;100542.81;;;9.86;100.00
36748;BME280;22716;51.556;5.080;2022-11-15T02:03:49;100527.94;;;9.86;100.00
36748;BME280;22716;51.556;5.080;2022-11-15T02:06:21;100543.53;;;9.95;100.00
36748;BME280;22716;51.556;5.080;2022-11-15T02:08:51;100528.69;;;9.97;100.00
36748;BME280;22716;51.556;5.080;2022-11-15T02:11:20;100532.06;;;10.04;100.00
36748;BME280;22716;51.556;5.080;2022-11-15T02:13:49;100531.19;;;10.06;100.00
36748;BME280;22716;51.556;5.080;2022-11-15T02:16:28;100529.38;;;10.11;100.00
36748;BME280;22716;51.556;5.080;2022-11-15T02:19:21;100525.03;;;10.09;100.00
36748;BME280;22716;51.556;5.080;2022-11-15T02:22:04;100512.84;;;10.09;100.00
36748;BME280;22716;51.556;5.080;2022-11-15T02:25:03;100517.97;;;10.17;100.00
36748;BME280;22716;51.556;5.080;2022-11-15T02:28:06;100523.13;;;10.22;100.00
36748;BME280;22716;51.556;5.080;2022-11-15T02:30:45;100524.88;;;10.23;100.00
36748;BME280;22716;51.556;5.080;2022-11-15T02:33:28;100521.38;;;10.24;100.00
36748;BME280;22716;51.556;5.080;2022-11-15T02:36:02;100514.34;;;10.27;100.00
36748;BME280;22716;51.556;5.080;2022-11-15T02:38:43;100515.16;;;10.31;100.00
36748;BME280;22716;51.556;5.080;2022-11-15T02:41:22;100501.31;;;10.23;100.00
36748;BME280;22716;51.556;5.080;2022-11-15T02:43:58;100505.53;;;10.33;100.00
36748;BME280;22716;51.556;5.080;2022-11-15T02:46:34;100502.06;;;10.32;100.00
36748;BME280;22716;51.556;5.080;2022-11-15T02:49:17;100504.59;;;10.38;100.00
36748;BME280;22716;51.556;5.080;2022-11-15T02:51:48;100497.59;;;10.39;100.00
36748;BME280;22716;51.556;5.080;2022-11-15T02:54:22;100503.63;;;10.44;100.00
36748;BME280;22716;51.556;5.080;2022-11-15T02:56:56;100497.50;;;10.45;100.00
36748;BME280;22716;51.556;5.080;2022-11-15T02:59:42;100488.84;;;10.40;100.00
36748;BME280;22716;51.556;5.080;2022-11-15T03:02:29;100493.06;;;10.48;100.00
36748;BME280;22716;51.556;5.080;2022-11-15T03:05:17;100495.63;;;10.53;100.00
36748;BME280;22716;51.556;5.080;2022-11-15T03:07:54;100492.13;;;10.52;100.00
36748;BME280;22716;51.556;5.080;2022-11-15T03:10:30;100492.16;;;10.51;100.00
36748;BME280;22716;51.556;5.080;2022-11-15T03:13:08;100501.69;;;10.56;100.00
36748;BME280;22716;51.556;5.080;2022-11-15T03:15:46;100502.56;;;10.55;100.00
36748;BME280;22716;51.556;5.080;2022-11-15T03:18:25;100488.59;;;10.55;100.00
36748;BME280;22716;51.556;5.080;2022-11-15T03:20:59;100498.16;;;10.57;100.00
36748;BME280;22716;51.556;5.080;2022-11-15T03:23:30;100504.22;;;10.61;100.00
36748;BME280;22716;51.556;5.080;2022-11-15T03:26:00;100506.88;;;10.59;100.00
36748;BME280;22716;51.556;5.080;2022-11-15T03:28:35;100488.50;;;10.62;100.00
36748;BME280;22716;51.556;5.080;2022-11-15T03:31:06;100491.13;;;10.62;100.00
36748;BME280;22716;51.556;5.080;2022-11-15T03:33:53;100495.44;;;10.63;100.00
36748;BME280;22716;51.556;5.080;2022-11-15T03:36:25;100462.50;;;10.50;100.00
36748;BME280;22716;51.556;5.080;2022-11-15T03:38:58;100480.63;;;10.62;100.00
36748;BME280;22716;51.556;5.080;2022-11-15T03:41:37;100484.13;;;10.61;100.00
36748;BME280;22716;51.556;5.080;2022-11-15T03:44:16;100480.69;;;10.59;100.00
36748;BME280;22716;51.556;5.080;2022-11-15T03:46:55;100485.94;;;10.59;100.00
36748;BME280;22716;51.556;5.080;2022-11-15T03:49:32;100478.06;;;10.58;100.00
36748;BME280;22716;51.556;5.080;2022-11-15T03:52:04;100486.75;;;10.61;100.00
36748;BME280;22716;51.556;5.080;2022-11-15T03:54:33;100476.38;;;10.55;100.00
36748;BME280;22716;51.556;5.080;2022-11-15T03:57:02;100485.06;;;10.59;100.00
36748;BME280;22716;51.556;5.080;2022-11-15T03:59:32;100493.78;;;10.59;100.00
36748;BME280;22716;51.556;5.080;2022-11-15T04:02:03;100487.78;;;10.53;100.00
36748;BME280;22716;51.556;5.080;2022-11-15T04:04:34;100494.63;;;10.61;100.00
36748;BME280;22716;51.556;5.080;2022-11-15T04:07:03;100494.66;;;10.58;100.00
36748;BME280;22716;51.556;5.080;2022-11-15T04:09:31;100492.91;;;10.59;100.00
36748;BME280;22716;51.556;5.080;2022-11-15T04:12:20;100488.56;;;10.58;100.00
36748;BME280;22716;51.556;5.080;2022-11-15T04:14:57;100492.81;;;10.65;100.00
36748;BME280;22716;51.556;5.080;2022-11-15T04:17:39;100491.03;;;10.67;100.00
36748;BME280;22716;51.556;5.080;2022-11-15T04:20:14;100490.19;;;10.65;100.00
36748;BME280;22716;51.556;5.080;2022-11-15T04:22:58;100476.31;;;10.58;100.00
36748;BME280;22716;51.556;5.080;2022-11-15T04:25:41;100491.91;;;10.67;100.00
36748;BME280;22716;51.556;5.080;2022-11-15T04:28:10;100489.25;;;10.69;100.00
36748;BME280;22716;51.556;5.080;2022-11-15T04:30:39;100480.63;;;10.62;100.00
36748;BME280;22716;51.556;5.080;2022-11-15T04:33:09;100497.91;;;10.73;100.00
36748;BME280;22716;51.556;5.080;2022-11-15T04:35:41;100487.53;;;10.68;100.00
36748;BME280;22716;51.556;5.080;2022-11-15T04:38:30;100500.53;;;10.74;100.00
36748;BME280;22716;51.556;5.080;2022-11-15T04:40:58;100503.97;;;10.76;100.00
36748;BME280;22716;51.556;5.080;2022-11-15T04:43:28;100497.91;;;10.74;100.00
36748;BME280;22716;51.556;5.080;2022-11-15T04:45:57;100498.69;;;10.79;100.00
36748;BME280;22716;51.556;5.080;2022-11-15T04:48:26;100490.81;;;10.79;100.00
36748;BME280;22716;51.556;5.080;2022-11-15T04:50:58;100501.25;;;10.82;100.00
36748;BME280;22716;51.556;5.080;2022-11-15T04:53:27;100486.47;;;10.78;100.00
36748;BME280;22716;51.556;5.080;2022-11-15T04:55:59;100489.88;;;10.83;100.00
36748;BME280;22716;51.556;5.080;2022-11-15T04:58:28;100488.97;;;10.86;100.00
36748;BME280;22716;51.556;5.080;2022-11-15T05:00:56;100481.06;;;10.87;100.00
36748;BME280;22716;51.556;5.080;2022-11-15T05:03:26;100481.94;;;10.86;100.00
36748;BME280;22716;51.556;5.080;2022-11-15T05:06:10;100479.34;;;10.86;100.00
36748;BME280;22716;51.556;5.080;2022-11-15T05:08:39;100485.38;;;10.90;100.00
36748;BME280;22716;51.556;5.080;2022-11-15T05:11:09;100481.00;;;10.92;100.00
36748;BME280;22716;51.556;5.080;2022-11-15T05:13:38;100476.66;;;10.91;100.00
36748;BME280;22716;51.556;5.080;2022-11-15T05:16:08;100461.94;;;10.82;100.00
36748;BME280;22716;51.556;5.080;2022-11-15T05:18:36;100481.84;;;10.94;100.00
36748;BME280;22716;51.556;5.080;2022-11-15T05:21:12;100473.19;;;10.89;100.00
36748;BME280;22716;51.556;5.080;2022-11-15T05:23:42;100473.16;;;10.92;100.00
36748;BME280;22716;51.556;5.080;2022-11-15T05:26:12;100469.72;;;10.87;100.00
36748;BME280;22716;51.556;5.080;2022-11-15T05:28:41;100475.81;;;10.89;100.00
36748;BME280;22716;51.556;5.080;2022-11-15T05:31:12;100487.06;;;10.94;100.00
36748;BME280;22716;51.556;5.080;2022-11-15T05:33:42;100480.09;;;10.93;100.00
36748;BME280;22716;51.556;5.080;2022-11-15T05:36:18;100476.69;;;10.88;100.00
36748;BME280;22716;51.556;5.080;2022-11-15T05:38:50;100484.47;;;10.92;100.00
36748;BME280;22716;51.556;5.080;2022-11-15T05:41:22;100488.88;;;10.92;100.00
36748;BME280;22716;51.556;5.080;2022-11-15T05:43:55;100483.63;;;10.92;100.00
36748;BME280;22716;51.556;5.080;2022-11-15T05:46:24;100481.94;;;10.88;100.00
36748;BME280;22716;51.556;5.080;2022-11-15T05:48:54;100486.25;;;10.90;100.00
36748;BME280;22716;51.556;5.080;2022-11-15T05:51:28;100486.31;;;10.89;100.00
36748;BME280;22716;51.556;5.080;2022-11-15T05:53:58;100482.00;;;10.85;100.00
36748;BME280;22716;51.556;5.080;2022-11-15T05:56:31;100494.94;;;10.92;100.00
36748;BME280;22716;51.556;5.080;2022-11-15T05:59:00;100495.81;;;10.93;100.00
36748;BME280;22716;51.556;5.080;2022-11-15T06:01:30;100504.56;;;10.93;100.00
36748;BME280;22716;51.556;5.080;2022-11-15T06:03:58;100495.00;;;10.91;100.00
36748;BME280;22716;51.556;5.080;2022-11-15T06:06:30;100499.34;;;10.92;100.00
36748;BME280;22716;51.556;5.080;2022-11-15T06:09:00;100497.63;;;10.91;100.00
36748;BME280;22716;51.556;5.080;2022-11-15T06:11:29;100486.31;;;10.89;100.00
36748;BME280;22716;51.556;5.080;2022-11-15T06:13:58;100488.84;;;10.93;100.00
36748;BME280;22716;51.556;5.080;2022-11-15T06:16:27;100492.38;;;10.91;100.00
36748;BME280;22716;51.556;5.080;2022-11-15T06:18:59;100494.06;;;10.93;100.00
36748;BME280;22716;51.556;5.080;2022-11-15T06:21:31;100499.31;;;10.95;100.00
36748;BME280;22716;51.556;5.080;2022-11-15T06:24:00;100506.31;;;10.93;100.00
36748;BME280;22716;51.556;5.080;2022-11-15T06:26:29;100502.03;;;10.89;100.00
36748;BME280;22716;51.556;5.080;2022-11-15T06:28:59;100508.06;;;10.94;100.00
36748;BME280;22716;51.556;5.080;2022-11-15T06:31:28;100500.28;;;10.86;100.00
36748;BME280;22716;51.556;5.080;2022-11-15T06:33:56;100499.47;;;10.86;100.00
36748;BME280;22716;51.556;5.080;2022-11-15T06:36:26;100506.34;;;10.91;100.00
36748;BME280;22716;51.556;5.080;2022-11-15T06:38:57;100508.97;;;10.90;100.00
36748;BME280;22716;51.556;5.080;2022-11-15T06:41:26;100509.91;;;10.89;100.00
36748;BME280;22716;51.556;5.080;2022-11-15T06:43:57;100521.22;;;10.91;100.00
36748;BME280;22716;51.556;5.080;2022-11-15T06:46:25;100513.44;;;10.85;100.00
36748;BME280;22716;51.556;5.080;2022-11-15T06:48:55;100524.72;;;10.90;100.00
36748;BME280;22716;51.556;5.080;2022-11-15T06:51:23;100515.22;;;10.83;100.00
36748;BME280;22716;51.556;5.080;2022-11-15T06:53:53;100523.03;;;10.86;100.00
36748;BME280;22716;51.556;5.080;2022-11-15T06:56:24;100523.00;;;10.87;100.00
36748;BME280;22716;51.556;5.080;2022-11-15T06:59:13;100515.25;;;10.81;100.00
36748;BME280;22716;51.556;5.080;2022-11-15T07:01:42;100522.19;;;10.85;100.00
36748;BME280;22716;51.556;5.080;2022-11-15T07:04:11;100528.28;;;10.86;100.00
36748;BME280;22716;51.556;5.080;2022-11-15T07:06:40;100528.28;;;10.84;100.00
36748;BME280;22716;51.556;5.080;2022-11-15T07:09:09;100516.94;;;10.84;100.00
36748;BME280;22716;51.556;5.080;2022-11-15T07:11:40;100521.31;;;10.85;100.00
36748;BME280;22716;51.556;5.080;2022-11-15T07:14:10;100529.16;;;10.85;100.00
36748;BME280;22716;51.556;5.080;2022-11-15T07:16:39;100527.47;;;10.81;100.00
36748;BME280;22716;51.556;5.080;2022-11-15T07:19:09;100523.16;;;10.80;100.00
36748;BME280;22716;51.556;5.080;2022-11-15T07:21:37;100519.66;;;10.78;100.00
36748;BME280;22716;51.556;5.080;2022-11-15T07:24:08;100532.75;;;10.79;100.00
36748;BME280;22716;51.556;5.080;2022-11-15T07:26:40;100529.28;;;10.79;100.00
36748;BME280;22716;51.556;5.080;2022-11-15T07:29:10;100529.25;;;10.80;100.00
36748;BME280;22716;51.556;5.080;2022-11-15T07:31:39;100530.13;;;10.79;100.00
36748;BME280;22716;51.556;5.080;2022-11-15T07:34:07;100525.72;;;10.83;100.00
36748;BME280;22716;51.556;5.080;2022-11-15T07:36:36;100527.44;;;10.84;100.00
36748;BME280;22716;51.556;5.080;2022-11-15T07:39:06;100509.22;;;10.76;100.00
36748;BME280;22716;51.556;5.080;2022-11-15T07:41:35;100527.44;;;10.84;100.00
36748;BME280;22716;51.556;5.080;2022-11-15T07:44:07;100530.97;;;10.83;100.00
36748;BME280;22716;51.556;5.080;2022-11-15T07:46:35;100536.25;;;10.80;100.00
36748;BME280;22716;51.556;5.080;2022-11-15T07:49:05;100535.34;;;10.82;100.00
36748;BME280;22716;51.556;5.080;2022-11-15T07:51:35;100545.81;;;10.82;100.00
36748;BME280;22716;51.556;5.080;2022-11-15T07:54:04;100541.50;;;10.80;100.00
36748;BME280;22716;51.556;5.080;2022-11-15T07:56:33;100534.50;;;10.79;100.00
36748;BME280;22716;51.556;5.080;2022-11-15T07:59:02;100536.22;;;10.81;100.00
36748;BME280;22716;51.556;5.080;2022-11-15T08:01:33;100544.06;;;10.81;100.00
36748;BME280;22716;51.556;5.080;2022-11-15T08:04:03;100531.84;;;10.82;100.00
36748;BME280;22716;51.556;5.080;2022-11-15T08:06:32;100530.09;;;10.81;100.00
36748;BME280;22716;51.556;5.080;2022-11-15T08:09:01;100520.53;;;10.78;100.00
36748;BME280;22716;51.556;5.080;2022-11-15T08:11:30;100519.56;;;10.84;100.00
36748;BME280;22716;51.556;5.080;2022-11-15T08:14:00;100519.59;;;10.82;100.00
36748;BME280;22716;51.556;5.080;2022-11-15T08:16:29;100521.25;;;10.86;100.00
36748;BME280;22716;51.556;5.080;2022-11-15T08:19:01;100516.03;;;10.86;100.00
36748;BME280;22716;51.556;5.080;2022-11-15T08:21:30;100517.81;;;10.84;100.00
36748;BME280;22716;51.556;5.080;2022-11-15T08:24:01;100523.94;;;10.85;100.00
36748;BME280;22716;51.556;5.080;2022-11-15T08:26:30;100522.13;;;10.87;100.00
36748;BME280;22716;51.556;5.080;2022-11-15T08:28:59;100515.19;;;10.86;100.00
36748;BME280;22716;51.556;5.080;2022-11-15T08:31:29;100513.41;;;10.88;100.00
36748;BME280;22716;51.556;5.080;2022-11-15T08:34:01;100506.38;;;10.90;100.00
36748;BME280;22716;51.556;5.080;2022-11-15T08:36:31;100510.63;;;10.97;100.00
36748;BME280;22716;51.556;5.080;2022-11-15T08:39:00;100511.44;;;10.99;100.00
36748;BME280;22716;51.556;5.080;2022-11-15T08:41:31;100508.81;;;11.00;100.00
36748;BME280;22716;51.556;5.080;2022-11-15T08:44:02;100494.84;;;11.00;100.00
36748;BME280;22716;51.556;5.080;2022-11-15T08:46:31;100501.66;;;11.08;100.00
36748;BME280;22716;51.556;5.080;2022-11-15T08:49:04;100492.06;;;11.09;100.00
36748;BME280;22716;51.556;5.080;2022-11-15T08:51:33;100485.06;;;11.08;100.00
36748;BME280;22716;51.556;5.080;2022-11-15T08:54:03;100473.59;;;11.15;100.00
36748;BME280;22716;51.556;5.080;2022-11-15T08:56:32;100477.03;;;11.17;100.00
36748;BME280;22716;51.556;5.080;2022-11-15T08:59:01;100471.91;;;11.12;100.00
36748;BME280;22716;51.556;5.080;2022-11-15T09:01:30;100468.53;;;11.04;100.00
36748;BME280;22716;51.556;5.080;2022-11-15T09:03:59;100473.66;;;11.10;100.00
36748;BME280;22716;51.556;5.080;2022-11-15T09:06:33;100458.91;;;11.06;100.00
36748;BME280;22716;51.556;5.080;2022-11-15T09:09:02;100465.78;;;11.10;100.00
36748;BME280;22716;51.556;5.080;2022-11-15T09:11:32;100464.97;;;11.07;100.00
36748;BME280;22716;51.556;5.080;2022-11-15T09:14:01;100469.34;;;11.09;100.00
36748;BME280;22716;51.556;5.080;2022-11-15T09:16:30;100462.34;;;11.07;100.00
36748;BME280;22716;51.556;5.080;2022-11-15T09:19:00;100463.28;;;11.06;100.00
36748;BME280;22716;51.556;5.080;2022-11-15T09:21:33;100465.84;;;11.09;100.00
36748;BME280;22716;51.556;5.080;2022-11-15T09:24:03;100455.34;;;11.09;100.00
36748;BME280;22716;51.556;5.080;2022-11-15T09:26:32;100453.56;;;11.11;100.00
36748;BME280;22716;51.556;5.080;2022-11-15T09:29:01;100451.84;;;11.08;100.00
36748;BME280;22716;51.556;5.080;2022-11-15T09:31:30;100454.44;;;11.11;100.00
36748;BME280;22716;51.556;5.080;2022-11-15T09:34:01;100459.63;;;11.14;100.00
36748;BME280;22716;51.556;5.080;2022-11-15T09:36:32;100445.63;;;11.14;100.00
36748;BME280;22716;51.556;5.080;2022-11-15T09:39:05;100454.25;;;11.19;100.00
36748;BME280;22716;51.556;5.080;2022-11-15T09:41:48;100458.63;;;11.20;100.00
36748;BME280;22716;51.556;5.080;2022-11-15T09:44:35;100455.06;;;11.24;100.00
36748;BME280;22716;51.556;5.080;2022-11-15T09:47:21;100461.03;;;11.32;100.00
36748;BME280;22716;51.556;5.080;2022-11-15T09:49:59;100457.53;;;11.32;100.00
36748;BME280;22716;51.556;5.080;2022-11-15T09:52:33;100461.03;;;11.32;100.00
36748;BME280;22716;51.556;5.080;2022-11-15T09:55:07;100447.97;;;11.29;100.00
36748;BME280;22716;51.556;5.080;2022-11-15T09:57:47;100439.34;;;11.24;100.00
36748;BME280;22716;51.556;5.080;2022-11-15T10:00:21;100447.97;;;11.29;100.00
36748;BME280;22716;51.556;5.080;2022-11-15T10:05:48;100467.03;;;11.37;100.00
36748;BME280;22716;51.556;5.080;2022-11-15T10:08:33;100452.13;;;11.39;100.00
36748;BME280;22716;51.556;5.080;2022-11-15T10:11:07;100451.28;;;11.39;100.00
36748;BME280;22716;51.556;5.080;2022-11-15T10:13:40;100447.78;;;11.38;100.00
36748;BME280;22716;51.556;5.080;2022-11-15T10:19:07;100440.75;;;11.40;100.00
36748;BME280;22716;51.556;5.080;2022-11-15T10:21:50;100424.88;;;11.46;100.00
36748;BME280;22716;51.556;5.080;2022-11-15T10:24:34;100420.41;;;11.51;100.00
36748;BME280;22716;51.556;5.080;2022-11-15T10:27:09;100419.63;;;11.46;100.00
36748;BME280;22716;51.556;5.080;2022-11-15T10:29:43;100413.56;;;11.43;100.00
36748;BME280;22716;51.556;5.080;2022-11-15T10:32:18;100414.34;;;11.48;100.00
36748;BME280;22716;51.556;5.080;2022-11-15T10:34:49;100405.56;;;11.50;100.00
36748;BME280;22716;51.556;5.080;2022-11-15T10:37:28;100395.09;;;11.49;100.00
36748;BME280;22716;51.556;5.080;2022-11-15T10:40:17;100406.13;;;11.64;100.00
36748;BME280;22716;51.556;5.080;2022-11-15T10:42:47;100407.78;;;11.68;100.00
36748;BME280;22716;51.556;5.080;2022-11-15T10:45:25;100403.41;;;11.70;100.00
36748;BME280;22716;51.556;5.080;2022-11-15T10:48:23;100390.91;;;11.80;100.00
36748;BME280;22716;51.556;5.080;2022-11-15T10:50:56;100397.81;;;11.86;100.00
36748;BME280;22716;51.556;5.080;2022-11-15T10:53:31;100384.38;;;11.98;100.00
36748;BME280;22716;51.556;5.080;2022-11-15T10:56:08;100387.59;;;12.10;100.00
36748;BME280;22716;51.556;5.080;2022-11-15T10:58:39;100377.81;;;12.17;100.00
36748;BME280;22716;51.556;5.080;2022-11-15T11:01:14;100374.91;;;12.29;100.00
36748;BME280;22716;51.556;5.080;2022-11-15T11:03:57;100374.53;;;12.43;100.00
36748;BME280;22716;51.556;5.080;2022-11-15T11:06:28;100358.69;;;12.47;100.00
36748;BME280;22716;51.556;5.080;2022-11-15T11:08:59;100354.16;;;12.52;100.00
36748;BME280;22716;51.556;5.080;2022-11-15T11:11:45;100346.19;;;12.55;100.00
36748;BME280;22716;51.556;5.080;2022-11-15T11:14:21;100347.94;;;12.56;100.00
36748;BME280;22716;51.556;5.080;2022-11-15T11:16:55;100330.53;;;12.51;100.00
36748;BME280;22716;51.556;5.080;2022-11-15T11:19:51;100333.88;;;12.57;100.00
36748;BME280;22716;51.556;5.080;2022-11-15T11:22:30;100327.63;;;12.61;100.00
36748;BME280;22716;51.556;5.080;2022-11-15T11:25:16;100319.63;;;12.66;100.00
36748;BME280;22716;51.556;5.080;2022-11-15T11:28:01;100321.19;;;12.73;100.00
36748;BME280;22716;51.556;5.080;2022-11-15T11:30:45;100314.09;;;12.76;100.00
36748;BME280;22716;51.556;5.080;2022-11-15T11:33:20;100307.81;;;12.80;100.00
36748;BME280;22716;51.556;5.080;2022-11-15T11:35:59;100310.34;;;12.83;99.80
36748;BME280;22716;51.556;5.080;2022-11-15T11:38:44;100300.50;;;12.91;99.33
36748;BME280;22716;51.556;5.080;2022-11-15T11:41:33;100289.59;;;13.05;98.92
36748;BME280;22716;51.556;5.080;2022-11-15T11:44:22;100284.03;;;13.16;98.26
36748;BME280;22716;51.556;5.080;2022-11-15T11:46:59;100266.47;;;13.18;98.40
36748;BME280;22716;51.556;5.080;2022-11-15T11:49:34;100275.84;;;13.26;97.73
36748;BME280;22716;51.556;5.080;2022-11-15T11:52:13;100272.19;;;13.30;96.93
36748;BME280;22716;51.556;5.080;2022-11-15T11:54:56;100264.97;;;13.37;96.39
36748;BME280;22716;51.556;5.080;2022-11-15T11:57:34;100265.78;;;13.39;95.67
36748;BME280;22716;51.556;5.080;2022-11-15T12:00:18;100259.53;;;13.43;94.90
36748;BME280;22716;51.556;5.080;2022-11-15T12:03:05;100254.84;;;13.53;94.88
36748;BME280;22716;51.556;5.080;2022-11-15T12:05:42;100255.47;;;13.59;94.42
36748;BME280;22716;51.556;5.080;2022-11-15T12:08:25;100237.88;;;13.61;93.57
36748;BME280;22716;51.556;5.080;2022-11-15T12:11:03;100231.94;;;13.55;93.19
36748;BME280;22716;51.556;5.080;2022-11-15T12:13:36;100229.28;;;13.56;93.09
36748;BME280;22716;51.556;5.080;2022-11-15T12:16:12;100225.88;;;13.53;92.95
36748;BME280;22716;51.556;5.080;2022-11-15T12:18:46;100229.69;;;13.44;92.82
36748;BME280;22716;51.556;5.080;2022-11-15T12:21:20;100222.94;;;13.35;92.54
36748;BME280;22716;51.556;5.080;2022-11-15T12:23:53;100217.72;;;13.34;92.87
36748;BME280;22716;51.556;5.080;2022-11-15T12:26:28;100224.69;;;13.35;92.12
36748;BME280;22716;51.556;5.080;2022-11-15T12:29:04;100217.78;;;13.32;91.59
36748;BME280;22716;51.556;5.080;2022-11-15T12:31:39;100223.97;;;13.30;91.42
36748;BME280;22716;51.556;5.080;2022-11-15T12:34:29;100206.94;;;13.14;90.97
36748;BME280;22716;51.556;5.080;2022-11-15T12:40:22;100212.25;;;13.12;91.21
36748;BME280;22716;51.556;5.080;2022-11-15T12:46:04;100186.50;;;12.94;91.16
36748;BME280;22716;51.556;5.080;2022-11-15T12:48:52;100183.00;;;12.93;91.17
36748;BME280;22716;51.556;5.080;2022-11-15T12:54:59;100175.91;;;12.96;91.31
36748;BME280;22716;51.556;5.080;2022-11-15T12:57:39;100171.47;;;12.98;91.16
36748;BME280;22716;51.556;5.080;2022-11-15T13:03:24;100156.72;;;12.92;91.14
36748;BME280;22716;51.556;5.080;2022-11-15T13:06:08;100159.38;;;12.92;91.35
36748;BME280;22716;51.556;5.080;2022-11-15T13:08:47;100149.97;;;12.85;91.45
36748;BME280;22716;51.556;5.080;2022-11-15T13:11:48;100151.53;;;12.90;91.18
36748;BME280;22716;51.556;5.080;2022-11-15T13:17:31;100144.72;;;12.83;91.93
36748;BME280;22716;51.556;5.080;2022-11-15T13:20:20;100133.31;;;12.84;92.33
36748;BME280;22716;51.556;5.080;2022-11-15T13:22:59;100125.53;;;12.81;92.53
36748;BME280;22716;51.556;5.080;2022-11-15T13:28:44;100115.81;;;12.83;93.01
36748;BME280;22716;51.556;5.080;2022-11-15T13:31:35;100123.69;;;12.83;93.11
36748;BME280;22716;51.556;5.080;2022-11-15T13:34:16;100111.50;;;12.82;93.68
36748;BME280;22716;51.556;5.080;2022-11-15T13:36:49;100104.50;;;12.81;93.51
36748;BME280;22716;51.556;5.080;2022-11-15T13:39:29;100094.94;;;12.79;94.10
36748;BME280;22716;51.556;5.080;2022-11-15T13:42:00;100094.88;;;12.80;94.13